Main page
METAR-TAF:

METAR-TAF

Airports :

Lydd Airport

Lydd, England

latitude: 50-57N, longitude: 000-56E, elevation: 3 m

Current weather observation

The report was made 31 minutes ago, at 01:50 UTC
Wind 11 kt from the West/Southwest
Temperature 9°C
Humidity 93%
Pressure 1034 hPa
Visibility 10 km or more

METAR: EGMD 210150Z AUTO 25011KT 9999 OVC006/// 09/08 Q1034

Time: 02:21 (02:21 UTC)

Forecast

The report was made 3 hours and 26 minutes ago, at 22:55 UTC
Forecast valid from 21 at 00 UTC to 21 at 09 UTC
Wind 8 kt from the Southwest
Visibility 10 km or more
Broken clouds at a height of 1000 ft
Temporary
from 21 at 00 UTC to 21 at 09 UTC
Visibility: 3000 m
Broken clouds at a height of 300 ft
mist

TAF: EGMD 202255Z 2100/2109 23008KT 9999 BKN010 TEMPO 2100/2109 3000 BR BKN003

Weather observations and forecasts of more than 4000 airports (METAR and TAF reports).

The available stations are represented by yellow and red dots on the map.

Hover mouse over dot to see the name of the station.

Then click to see weather observations and forecasts.

To change the map : click on the green buttons with a black cross to zoom in, on the green button with a dash to zoom out, or on the green arrows for adjacent maps.


METAR-TAF: